Time;durP1;ratioP1;P1;durP2;ratioP2;P2;SDS_P1;SDS_P2;PMS_P1;PMS_P2;Temp;Humidity;BMP_temperature;BMP_pressure;BME280_temperature;BME280_humidity;BME280_pressure;Samples;Min_cycle;Max_cycle;Signal;HPM_P1;HPM_P2
2023/01/04 00:00:18;;;;;;;;;4.33;3.00;;;;;12.55;100.00;102278.66;5065103;28;45337;-79
2023/01/04 00:02:43;;;;;;;;;4.00;1.00;;;;;12.54;100.00;102287.81;5081007;28;45392;-79
2023/01/04 00:05:09;;;;;;;;;3.00;3.00;;;;;12.60;100.00;102265.50;5065946;28;45368;-79
2023/01/04 00:07:34;;;;;;;;;4.33;2.00;;;;;12.67;100.00;102288.56;5065263;28;45678;-78
2023/01/04 00:10:00;;;;;;;;;2.67;2.67;;;;;12.59;100.00;102277.41;5065097;28;45337;-79
2023/01/04 00:12:25;;;;;;;;;1.00;1.00;;;;;12.67;100.00;102280.38;5080724;28;45417;-79
2023/01/04 00:14:50;;;;;;;;;3.00;3.00;;;;;12.67;100.00;102294.00;5065437;28;45456;-77
2023/01/04 00:17:16;;;;;;;;;3.33;3.00;;;;;12.77;100.00;102286.81;5068874;28;46959;-77
2023/01/04 00:19:41;;;;;;;;;2.00;2.00;;;;;12.66;100.00;102265.00;5072166;28;45593;-77
2023/01/04 00:22:06;;;;;;;;;2.00;2.00;;;;;12.69;100.00;102259.31;5080620;28;45622;-79
2023/01/04 00:24:32;;;;;;;;;0.00;0.00;;;;;12.84;100.00;102279.88;5065398;28;45242;-79
2023/01/04 00:26:57;;;;;;;;;3.00;3.00;;;;;12.75;100.00;102278.75;5065184;28;45305;-79
2023/01/04 00:29:23;;;;;;;;;0.00;0.00;;;;;12.71;100.00;102268.25;5065062;28;45392;-79
2023/01/04 00:31:48;;;;;;;;;2.00;2.00;;;;;12.81;100.00;102259.16;5080709;28;45300;-78
2023/01/04 00:34:16;;;;;;;;;1.67;1.67;;;;;12.83;100.00;102268.09;5080991;28;45423;-78
2023/01/04 00:36:41;;;;;;;;;4.67;4.00;;;;;12.87;100.00;102268.69;5065287;28;45374;-77
2023/01/04 00:39:07;;;;;;;;;2.33;2.00;;;;;12.81;100.00;102266.47;5064714;28;45213;-77
2023/01/04 00:41:44;;;;;;;;;5.00;3.00;;;;;12.88;100.00;102270.44;5064977;28;45179;-78
2023/01/04 00:44:11;;;;;;;;;3.67;3.00;;;;;12.79;100.00;102266.59;5065109;27;45326;-78
2023/01/04 00:46:37;;;;;;;;;6.33;2.33;;;;;12.91;100.00;102263.88;5064808;28;45319;-78
2023/01/04 00:49:03;;;;;;;;;2.67;1.00;;;;;12.71;100.00;102266.34;5062838;28;45304;-78
2023/01/04 00:51:30;;;;;;;;;3.00;3.00;;;;;12.89;100.00;102261.25;5074134;28;45267;-78
2023/01/04 00:53:58;;;;;;;;;4.00;4.00;;;;;12.98;100.00;102257.78;5084813;28;45405;-77
2023/01/04 00:56:24;;;;;;;;;2.00;2.00;;;;;12.76;100.00;102247.78;5084647;27;45347;-77
2023/01/04 00:58:53;;;;;;;;;3.00;3.00;;;;;12.79;100.00;102263.00;5066191;28;45446;-78
2023/01/04 01:01:19;;;;;;;;;4.33;3.00;;;;;12.72;100.00;102231.78;5075947;28;45283;-77
2023/01/04 01:03:44;;;;;;;;;4.00;4.00;;;;;12.86;100.00;102245.13;5085104;27;45229;-77
2023/01/04 01:06:11;;;;;;;;;4.67;2.67;;;;;12.93;100.00;102230.00;5084801;27;45228;-77
2023/01/04 01:08:36;;;;;;;;;3.33;3.33;;;;;12.88;100.00;102230.38;5084536;27;45177;-78
2023/01/04 01:11:04;;;;;;;;;7.00;3.33;;;;;12.94;100.00;102236.31;5074324;27;45422;-77
2023/01/04 01:13:30;;;;;;;;;2.67;2.67;;;;;12.89;100.00;102223.06;5081053;28;45531;-78
2023/01/04 01:15:56;;;;;;;;;3.67;3.67;;;;;12.88;100.00;102218.59;5082619;28;45427;-78
2023/01/04 01:18:21;;;;;;;;;2.33;2.33;;;;;12.80;100.00;102218.38;5066914;27;45438;-78
2023/01/04 01:20:46;;;;;;;;;4.00;3.00;;;;;12.86;100.00;102223.31;5079534;28;45543;-78
2023/01/04 01:23:13;;;;;;;;;2.00;2.00;;;;;12.70;100.00;102228.31;5064908;28;45267;-78
2023/01/04 01:25:40;;;;;;;;;7.00;3.67;;;;;12.80;100.00;102224.69;5064289;28;45471;-78
2023/01/04 01:28:06;;;;;;;;;3.67;3.67;;;;;12.74;100.00;102227.06;5079192;28;45444;-78
2023/01/04 01:30:31;;;;;;;;;2.33;2.33;;;;;12.87;100.00;102209.56;5074398;28;45456;-78
2023/01/04 01:32:56;;;;;;;;;1.00;1.00;;;;;12.81;100.00;102231.03;5084882;28;45700;-78
2023/01/04 01:35:22;;;;;;;;;4.00;4.00;;;;;12.94;100.00;102231.72;5073855;27;46188;-78
2023/01/04 01:37:47;;;;;;;;;4.33;2.33;;;;;12.91;100.00;102215.63;5080609;28;45256;-78
2023/01/04 01:40:12;;;;;;;;;5.00;2.67;;;;;12.86;100.00;102212.41;5073616;27;45262;-78
2023/01/04 01:42:38;;;;;;;;;2.00;2.00;;;;;12.89;100.00;102228.53;5062547;28;45378;-78
2023/01/04 01:45:09;;;;;;;;;3.00;2.00;;;;;12.75;100.00;102213.31;5064134;28;45662;-78
2023/01/04 01:47:45;;;;;;;;;4.00;4.00;;;;;12.68;100.00;102213.94;5079223;28;45255;-78
2023/01/04 01:50:28;;;;;;;;;3.67;3.67;;;;;12.68;100.00;102205.75;5063856;28;45287;-78
2023/01/04 01:52:56;;;;;;;;;4.67;2.67;;;;;12.76;100.00;102214.19;5062794;28;45230;-78
2023/01/04 01:55:22;;;;;;;;;4.00;4.00;;;;;12.99;100.00;102229.50;5064310;28;47007;-78
2023/01/04 01:57:49;;;;;;;;;5.00;5.00;;;;;12.99;100.00;102217.72;5074733;27;45593;-79
2023/01/04 02:00:15;;;;;;;;;3.00;3.00;;;;;13.04;100.00;102202.69;5063680;28;45394;-78
2023/01/04 02:02:56;;;;;;;;;7.33;4.67;;;;;13.10;100.00;102196.72;5063500;28;45279;-78
2023/01/04 02:05:23;;;;;;;;;3.00;3.00;;;;;13.07;100.00;102205.19;5062851;28;46261;-78
2023/01/04 02:07:49;;;;;;;;;2.00;2.00;;;;;13.07;100.00;102209.78;5063452;28;45383;-78
2023/01/04 02:10:15;;;;;;;;;3.67;3.67;;;;;12.91;100.00;102193.81;5061888;28;45312;-79
2023/01/04 02:12:43;;;;;;;;;4.00;4.00;;;;;13.00;100.00;102222.19;5063956;28;45465;-79
2023/01/04 02:15:09;;;;;;;;;2.33;2.00;;;;;13.02;100.00;102212.88;5063084;28;46800;-78
2023/01/04 02:17:50;;;;;;;;;4.00;3.00;;;;;12.99;100.00;102204.09;5079052;28;45621;-78
2023/01/04 02:20:49;;;;;;;;;4.00;4.00;;;;;13.17;100.00;102227.97;5072023;28;45263;-78
2023/01/04 02:23:32;;;;;;;;;5.00;3.67;;;;;13.16;100.00;102225.38;5084031;28;45333;-78
2023/01/04 02:26:35;;;;;;;;;4.33;2.00;;;;;13.06;100.00;102236.19;5083500;28;45244;-78
2023/01/04 02:29:32;;;;;;;;;3.00;3.00;;;;;13.11;100.00;102217.56;5083649;28;45319;-76
2023/01/04 02:32:02;;;;;;;;;3.00;3.00;;;;;13.18;100.00;102232.44;5064982;28;45294;-77
2023/01/04 02:34:40;;;;;;;;;3.00;3.00;;;;;13.17;100.00;102222.53;5101435;27;45409;-77
2023/01/04 02:37:37;;;;;;;;;3.00;3.00;;;;;13.22;100.00;102214.81;5103816;27;45312;-76
2023/01/04 02:40:30;;;;;;;;;4.33;3.00;;;;;13.28;100.00;102221.63;5085593;27;45410;-77
2023/01/04 02:46:11;;;;;;;;;3.33;3.00;;;;;13.21;100.00;102214.97;5104001;27;45275;-77
2023/01/04 02:51:31;;;;;;;;;3.33;2.33;;;;;13.25;100.00;102222.75;5103677;27;45423;-77
2023/01/04 02:54:02;;;;;;;;;2.67;0.00;;;;;13.11;100.00;102225.75;5103810;27;45455;-77
2023/01/04 02:56:51;;;;;;;;;3.67;3.67;;;;;13.17;100.00;102222.53;5076387;27;45299;-77
2023/01/04 02:59:38;;;;;;;;;4.67;3.00;;;;;13.25;100.00;102222.75;5064638;28;47285;-77
2023/01/04 03:08:35;;;;;;;;;3.00;3.00;;;;;13.36;100.00;102218.25;5080495;27;45385;-77
2023/01/04 03:11:00;;;;;;;;;2.33;2.33;;;;;13.32;100.00;102214.03;5075802;27;47298;-77
2023/01/04 03:13:30;;;;;;;;;4.00;2.33;;;;;13.36;100.00;102215.53;5085097;27;45365;-77
2023/01/04 03:16:20;;;;;;;;;4.00;2.00;;;;;13.40;100.00;102222.44;5084862;28;45337;-77
2023/01/04 03:18:50;;;;;;;;;1.00;1.00;;;;;13.17;100.00;102210.75;5089159;27;45251;-77
2023/01/04 03:21:19;;;;;;;;;2.67;2.67;;;;;13.29;100.00;102214.31;5091011;27;45411;-77
2023/01/04 03:35:37;;;;;;;;;4.00;2.00;;;;;13.18;100.00;102191.50;5086141;28;45310;-77
2023/01/04 03:50:46;;;;;;;;;2.00;2.00;;;;;13.13;100.00;102171.94;5106271;27;45258;-77
2023/01/04 03:53:13;;;;;;;;;4.00;2.00;;;;;13.24;100.00;102179.19;5077458;28;45321;-77
2023/01/04 03:55:41;;;;;;;;;2.67;2.67;;;;;13.16;100.00;102159.88;5103469;27;46147;-77
2023/01/04 03:58:06;;;;;;;;;1.33;1.33;;;;;13.09;100.00;102164.97;5094171;27;45393;-77
2023/01/04 04:00:33;;;;;;;;;2.00;2.00;;;;;13.14;100.00;102146.38;5085739;27;45476;-77
2023/01/04 04:03:16;;;;;;;;;1.00;1.00;;;;;13.07;100.00;102153.34;5086312;28;45409;-77
2023/01/04 04:08:27;;;;;;;;;3.00;2.00;;;;;13.21;100.00;102147.59;5106143;27;45297;-77
2023/01/04 04:11:29;;;;;;;;;1.00;1.00;;;;;13.06;100.00;102151.59;5106360;27;45287;-77
2023/01/04 04:13:49;;;;;;;;;1.00;1.00;;;;;12.96;100.00;102147.91;5107829;27;45224;-77
2023/01/04 04:16:14;;;;;;;;;1.00;1.00;;;;;13.19;100.00;102146.84;5107107;27;45453;-77
2023/01/04 04:18:40;;;;;;;;;2.00;1.00;;;;;13.27;100.00;102156.25;5087020;27;45286;-77
2023/01/04 04:21:05;;;;;;;;;1.00;1.00;;;;;13.32;100.00;102153.97;5091705;27;45438;-76
2023/01/04 04:23:31;;;;;;;;;2.33;2.00;;;;;13.20;100.00;102140.41;5085887;28;45330;-76
2023/01/04 04:25:56;;;;;;;;;1.00;1.00;;;;;13.31;100.00;102146.78;5085168;28;46286;-77
2023/01/04 04:28:21;;;;;;;;;1.00;1.00;;;;;13.29;100.00;102138.75;5085291;28;45419;-77
2023/01/04 04:30:50;;;;;;;;;3.00;1.00;;;;;13.40;100.00;102159.66;5085178;27;45284;-76
2023/01/04 04:33:16;;;;;;;;;2.00;2.00;;;;;13.37;100.00;102160.75;5075104;27;45442;-77
2023/01/04 04:35:41;;;;;;;;;2.00;1.00;;;;;13.42;100.00;102154.94;5091054;27;46189;-75
2023/01/04 04:38:06;;;;;;;;;3.67;1.00;;;;;13.34;100.00;102139.22;5085044;27;45259;-76
2023/01/04 04:43:16;;;;;;;;;2.00;2.00;;;;;13.37;100.00;102155.31;5085446;27;45184;-76
2023/01/04 04:45:41;;;;;;;;;1.33;1.33;;;;;13.40;100.00;102148.72;5084926;27;45335;-77
2023/01/04 04:48:06;;;;;;;;;2.00;2.00;;;;;13.36;100.00;102139.09;5085056;28;45180;-77
2023/01/04 04:50:32;;;;;;;;;2.00;1.33;;;;;13.31;100.00;102144.06;5082502;27;45230;-77
2023/01/04 04:52:57;;;;;;;;;2.67;1.00;;;;;13.41;100.00;102140.41;5105844;27;45248;-77
2023/01/04 04:55:23;;;;;;;;;2.00;2.00;;;;;13.42;100.00;102138.56;5086526;27;46779;-77
2023/01/04 04:57:48;;;;;;;;;1.67;1.67;;;;;13.46;100.00;102145.47;5077557;28;45222;-77
2023/01/04 05:00:14;;;;;;;;;3.00;3.00;;;;;13.43;100.00;102143.00;5100466;27;45296;-77
2023/01/04 05:02:39;;;;;;;;;6.00;3.00;;;;;13.38;100.00;102143.41;5105786;27;45235;-77
2023/01/04 05:05:05;;;;;;;;;2.00;2.00;;;;;13.37;100.00;102129.91;5086770;27;45414;-77
2023/01/04 05:07:30;;;;;;;;;3.67;1.67;;;;;13.37;100.00;102135.38;5105268;27;45317;-77
2023/01/04 05:09:55;;;;;;;;;2.00;2.00;;;;;13.35;100.00;102127.31;5105216;27;45308;-77
2023/01/04 05:15:05;;;;;;;;;2.33;2.33;;;;;13.45;100.00;102110.97;5104995;27;45339;-76
2023/01/04 05:17:31;;;;;;;;;2.33;2.00;;;;;13.37;100.00;102122.53;5104846;27;45305;-76
2023/01/04 05:19:56;;;;;;;;;1.00;1.00;;;;;13.33;100.00;102125.69;5081918;28;45254;-77
2023/01/04 05:22:22;;;;;;;;;2.00;2.00;;;;;13.38;100.00;102121.56;5084559;28;45298;-77
2023/01/04 05:24:47;;;;;;;;;2.33;2.00;;;;;13.34;100.00;102121.97;5065888;28;47024;-77
2023/01/04 05:27:12;;;;;;;;;5.00;4.00;;;;;13.39;100.00;102130.63;5084267;28;45327;-77
2023/01/04 05:32:21;;;;;;;;;2.00;2.00;;;;;13.45;100.00;102128.22;5084747;28;45627;-77
2023/01/04 05:34:47;;;;;;;;;2.00;2.00;;;;;13.50;100.00;102133.28;5083899;28;45641;-77
2023/01/04 05:37:12;;;;;;;;;3.00;2.00;;;;;13.51;100.00;102133.16;5065596;28;45341;-77
2023/01/04 05:39:37;;;;;;;;;2.00;2.00;;;;;13.39;100.00;102114.22;5083696;28;45481;-77
2023/01/04 05:44:47;;;;;;;;;2.67;1.00;;;;;13.45;100.00;102130.06;5091871;27;45337;-77
2023/01/04 05:47:12;;;;;;;;;2.67;2.67;;;;;13.40;100.00;102135.06;5103998;27;45282;-77
2023/01/04 05:49:37;;;;;;;;;2.00;2.00;;;;;13.52;100.00;102128.53;5104580;27;45239;-80
2023/01/04 05:52:03;;;;;;;;;2.00;2.00;;;;;13.62;100.00;102129.47;5104893;27;45243;-78
2023/01/04 05:54:28;;;;;;;;;2.00;2.00;;;;;13.53;100.00;102131.13;5104367;27;45557;-76
2023/01/04 05:56:53;;;;;;;;;3.00;1.33;;;;;13.58;100.00;102138.94;5102521;27;45428;-76
2023/01/04 05:59:19;;;;;;;;;0.67;0.67;;;;;13.56;100.00;102127.28;5083890;28;45506;-79
2023/01/04 06:01:44;;;;;;;;;1.00;1.00;;;;;13.41;100.00;102136.81;5079304;27;45606;-77
2023/01/04 06:04:09;;;;;;;;;1.00;1.00;;;;;13.42;100.00;102153.06;5065565;28;46915;-77
2023/01/04 06:06:34;;;;;;;;;3.00;2.00;;;;;13.49;100.00;102142.47;5083518;27;45352;-76
2023/01/04 06:09:00;;;;;;;;;1.00;1.00;;;;;13.52;100.00;102144.91;5083367;28;45409;-78
2023/01/04 06:11:25;;;;;;;;;2.33;1.00;;;;;13.38;100.00;102124.28;5083816;27;45389;-77
2023/01/04 06:13:50;;;;;;;;;1.00;1.00;;;;;13.40;100.00;102140.53;5083554;27;46137;-79
2023/01/04 06:16:16;;;;;;;;;3.00;1.33;;;;;13.44;100.00;102136.56;5078713;27;45256;-77
2023/01/04 06:18:41;;;;;;;;;2.00;2.00;;;;;13.39;100.00;102122.41;5085562;27;45260;-78
2023/01/04 06:21:06;;;;;;;;;2.00;2.00;;;;;13.39;100.00;102130.63;5071864;27;45232;-78
2023/01/04 06:23:32;;;;;;;;;1.00;1.00;;;;;13.26;100.00;102122.63;5103612;27;46431;-77
2023/01/04 06:25:57;;;;;;;;;2.00;1.00;;;;;13.40;100.00;102119.56;5104078;27;45171;-76
2023/01/04 06:28:22;;;;;;;;;0.00;0.00;;;;;13.43;100.00;102113.84;5085244;27;45257;-77
2023/01/04 06:30:48;;;;;;;;;1.00;1.00;;;;;13.40;100.00;102108.66;5091214;27;45234;-78
2023/01/04 06:33:13;;;;;;;;;2.00;2.00;;;;;13.47;100.00;102108.97;5083443;28;46421;-78
2023/01/04 06:35:38;;;;;;;;;1.67;1.00;;;;;13.37;100.00;102099.88;5083197;28;45309;-77
2023/01/04 06:38:04;;;;;;;;;0.00;0.00;;;;;13.44;100.00;102109.25;5083052;28;45329;-77
2023/01/04 06:40:29;;;;;;;;;1.00;1.00;;;;;13.40;100.00;102114.09;5065602;28;45281;-77
2023/01/04 06:42:55;;;;;;;;;1.00;1.00;;;;;13.30;100.00;102106.84;5082738;28;45362;-80
2023/01/04 06:45:20;;;;;;;;;1.00;1.00;;;;;13.45;100.00;102100.03;5077002;27;45498;-78
2023/01/04 06:47:46;;;;;;;;;0.67;0.33;;;;;13.44;100.00;102115.56;5084314;27;45501;-78
2023/01/04 06:50:12;;;;;;;;;2.33;1.00;;;;;13.52;100.00;102131.28;5067313;28;45324;-78
2023/01/04 06:52:38;;;;;;;;;1.00;1.00;;;;;13.53;100.00;102125.69;5088059;27;46861;-78
2023/01/04 06:55:05;;;;;;;;;1.67;1.67;;;;;13.49;100.00;102134.28;5094449;27;45441;-78
2023/01/04 06:57:31;;;;;;;;;2.00;2.00;;;;;13.47;100.00;102141.72;5088242;27;45357;-78
2023/01/04 06:59:57;;;;;;;;;0.67;0.67;;;;;13.37;100.00;102138.09;5093804;27;45276;-77
2023/01/04 07:02:22;;;;;;;;;1.00;1.00;;;;;13.41;100.00;102134.09;5085983;27;45290;-77
2023/01/04 07:04:47;;;;;;;;;3.00;1.67;;;;;13.33;100.00;102129.28;5081113;27;45479;-77
2023/01/04 07:07:13;;;;;;;;;0.67;0.67;;;;;13.44;100.00;102126.47;5068622;28;45290;-78
2023/01/04 07:09:38;;;;;;;;;2.67;2.67;;;;;13.53;100.00;102122.94;5100055;27;45357;-78
2023/01/04 07:12:04;;;;;;;;;4.00;2.67;;;;;13.47;100.00;102133.53;5068009;28;46133;-78
2023/01/04 07:14:30;;;;;;;;;2.00;2.00;;;;;13.48;100.00;102135.28;5099715;27;45429;-77
2023/01/04 07:16:55;;;;;;;;;0.00;0.00;;;;;13.47;100.00;102119.91;5073556;27;45324;-78
2023/01/04 07:19:20;;;;;;;;;2.00;2.00;;;;;13.56;100.00;102130.88;5088966;27;45329;-78
2023/01/04 07:21:46;;;;;;;;;4.00;2.00;;;;;13.52;100.00;102123.06;5086384;27;45343;-78
2023/01/04 07:24:11;;;;;;;;;1.33;1.33;;;;;13.49;100.00;102116.03;5086383;28;45481;-79
2023/01/04 07:26:37;;;;;;;;;1.00;1.00;;;;;13.49;100.00;102113.31;5085684;27;45314;-78
2023/01/04 07:29:15;;;;;;;;;4.00;1.00;;;;;13.50;100.00;102127.84;5087009;28;45519;-78
2023/01/04 07:31:42;;;;;;;;;1.00;1.00;;;;;13.46;100.00;102126.34;5068105;28;47454;-79
2023/01/04 07:34:07;;;;;;;;;2.00;2.00;;;;;13.68;100.00;102122.59;5086163;28;45151;-79
2023/01/04 07:36:33;;;;;;;;;3.00;2.00;;;;;13.57;100.00;102124.44;5072326;28;45372;-78
2023/01/04 07:38:59;;;;;;;;;1.00;1.00;;;;;13.61;100.00;102125.88;5086165;27;45307;-78
2023/01/04 07:41:24;;;;;;;;;1.00;1.00;;;;;13.69;100.00;102141.59;5067372;28;47107;-81
2023/01/04 07:43:50;;;;;;;;;1.00;1.00;;;;;13.70;100.00;102134.25;5067575;28;45373;-78
2023/01/04 07:46:15;;;;;;;;;1.00;1.00;;;;;13.71;100.00;102150.53;5068723;28;45506;-78
2023/01/04 07:48:41;;;;;;;;;1.00;1.00;;;;;13.78;100.00;102146.25;5082179;27;45365;-79
2023/01/04 07:51:06;;;;;;;;;1.00;1.00;;;;;13.66;100.00;102133.69;5092476;27;45865;-81
2023/01/04 07:53:32;;;;;;;;;1.00;0.00;;;;;13.61;100.00;102133.19;5106480;27;45275;-79
2023/01/04 07:55:58;;;;;;;;;1.00;1.00;;;;;13.81;100.00;102129.56;5107092;27;45357;-80
2023/01/04 07:58:25;;;;;;;;;1.00;1.00;;;;;13.88;100.00;102128.03;5092452;27;45523;-79
2023/01/04 08:00:51;;;;;;;;;0.67;0.67;;;;;13.78;100.00;102139.91;5085660;27;45431;-81
2023/01/04 08:03:16;;;;;;;;;1.00;1.00;;;;;13.84;100.00;102145.72;5086348;28;45141;-81
2023/01/04 08:05:42;;;;;;;;;2.00;1.67;;;;;13.84;100.00;102131.19;5093974;27;45294;-78
2023/01/04 08:08:08;;;;;;;;;1.00;1.00;;;;;13.91;100.00;102133.22;5093354;27;45323;-79
2023/01/04 08:10:33;;;;;;;;;1.33;1.33;;;;;13.87;100.00;102120.84;5080088;28;46922;-77
2023/01/04 08:12:58;;;;;;;;;0.00;0.00;;;;;13.99;100.00;102122.50;5099753;27;45270;-77
2023/01/04 08:15:27;;;;;;;;;0.67;0.67;;;;;13.90;100.00;102123.31;5106411;27;45262;-79
2023/01/04 08:17:54;;;;;;;;;2.00;2.00;;;;;13.95;100.00;102121.00;5106444;27;45526;-80
2023/01/04 08:20:19;;;;;;;;;1.00;1.00;;;;;13.86;100.00;102126.44;5105903;27;45544;-81
2023/01/04 08:22:45;;;;;;;;;3.33;1.33;;;;;13.98;100.00;102128.94;5105923;27;45242;-77
2023/01/04 08:25:10;;;;;;;;;5.00;3.00;;;;;13.98;100.00;102120.75;5070718;27;45714;-78
2023/01/04 08:27:35;;;;;;;;;2.00;1.00;;;;;13.96;100.00;102122.75;5105395;27;45405;-79
2023/01/04 08:30:01;;;;;;;;;7.33;6.00;;;;;13.89;100.00;102127.03;5074610;27;46281;-78
2023/01/04 08:32:26;;;;;;;;;0.00;0.00;;;;;13.98;100.00;102115.28;5105585;27;45338;-79
2023/01/04 08:34:53;;;;;;;;;2.00;2.00;;;;;14.15;100.00;102121.13;5106220;27;45715;-81
2023/01/04 08:37:18;;;;;;;;;2.33;2.33;;;;;14.09;100.00;102127.13;5105991;27;45396;-79
2023/01/04 08:39:43;;;;;;;;;1.00;1.00;;;;;14.16;100.00;102128.31;5074749;27;46767;-77
2023/01/04 08:42:09;;;;;;;;;1.33;1.33;;;;;14.18;100.00;102134.47;5091089;27;45271;-78
2023/01/04 08:44:34;;;;;;;;;3.67;2.00;;;;;14.11;100.00;102146.97;5084989;28;45286;-78
2023/01/04 08:47:00;;;;;;;;;1.00;1.00;;;;;14.17;100.00;102140.97;5086019;28;45463;-78
2023/01/04 08:49:25;;;;;;;;;3.33;3.33;;;;;14.22;100.00;102150.50;5067357;28;47131;-79
2023/01/04 08:51:51;;;;;;;;;3.00;3.00;;;;;14.17;100.00;102146.44;5098932;27;45279;-81
2023/01/04 08:54:17;;;;;;;;;4.33;1.67;;;;;14.09;100.00;102138.06;5067734;28;45350;-76
2023/01/04 08:56:42;;;;;;;;;2.00;0.00;;;;;14.27;100.00;102142.72;5081788;27;45691;-80
2023/01/04 08:59:10;;;;;;;;;2.67;2.67;;;;;14.36;100.00;102141.91;5087311;27;45661;-80
2023/01/04 09:01:35;;;;;;;;;1.33;1.33;;;;;14.35;100.00;102133.84;5067262;28;45230;-77
2023/01/04 09:04:01;;;;;;;;;3.00;1.67;;;;;14.36;100.00;102132.84;5086266;27;45253;-79
2023/01/04 09:06:27;;;;;;;;;1.00;1.00;;;;;14.32;100.00;102125.91;5074590;28;45551;-80
2023/01/04 09:08:54;;;;;;;;;2.67;1.33;;;;;14.21;100.00;102128.75;5082540;28;48274;-79
2023/01/04 09:11:21;;;;;;;;;2.00;2.00;;;;;13.93;100.00;102128.50;5084342;28;45346;-80
2023/01/04 09:13:47;;;;;;;;;0.00;0.00;;;;;14.14;100.00;102114.78;5083618;27;45433;-79
2023/01/04 09:16:16;;;;;;;;;2.33;2.33;;;;;14.15;100.00;102115.66;5080081;27;45560;-80
2023/01/04 09:18:42;;;;;;;;;2.00;2.00;;;;;14.34;100.00;102115.69;5099588;27;46378;-78
2023/01/04 09:21:10;;;;;;;;;1.33;1.33;;;;;14.28;100.00;102122.59;5090972;27;45297;-78
2023/01/04 09:23:36;;;;;;;;;3.00;2.00;;;;;14.35;100.00;102122.91;5091976;27;45427;-81
2023/01/04 09:26:06;;;;;;;;;2.00;1.67;;;;;14.37;100.00;102119.03;5105297;27;45343;-80
2023/01/04 09:28:31;;;;;;;;;3.00;3.00;;;;;14.37;100.00;102126.38;5104782;27;45366;-81
2023/01/04 09:30:57;;;;;;;;;2.00;2.00;;;;;14.28;100.00;102113.53;5103747;27;45164;-79
2023/01/04 09:33:22;;;;;;;;;2.33;2.33;;;;;14.33;100.00;102103.88;5084737;28;45206;-78
2023/01/04 09:35:47;;;;;;;;;4.00;2.00;;;;;14.39;100.00;102113.47;5084956;27;45251;-77
2023/01/04 09:38:13;;;;;;;;;1.00;1.00;;;;;14.31;100.00;102126.94;5084303;28;45169;-82
2023/01/04 09:41:00;;;;;;;;;3.33;1.33;;;;;14.37;100.00;102112.69;5079621;27;45455;-79
2023/01/04 09:43:33;;;;;;;;;0.67;0.67;;;;;14.35;100.00;102112.81;5085057;28;45298;-79
2023/01/04 09:46:07;;;;;;;;;2.00;2.00;;;;;14.26;100.00;102118.25;5084704;27;45353;-79
2023/01/04 09:48:34;;;;;;;;;1.00;1.00;;;;;14.40;100.00;102117.91;5083967;28;45439;-77
2023/01/04 09:51:10;;;;;;;;;3.33;1.00;;;;;14.52;100.00;102118.66;5071318;27;45376;-79
2023/01/04 09:53:43;;;;;;;;;0.00;0.00;;;;;14.59;100.00;102133.50;5090054;27;45388;-78
2023/01/04 09:56:29;;;;;;;;;1.00;1.00;;;;;14.61;100.00;102134.25;5084410;28;45446;-78
2023/01/04 09:58:57;;;;;;;;;2.33;2.33;;;;;14.53;100.00;102154.09;5084079;27;45341;-79
2023/01/04 10:01:42;;;;;;;;;1.00;1.00;;;;;14.67;100.00;102155.56;5077002;27;45370;-78
2023/01/04 10:04:27;;;;;;;;;1.67;1.67;;;;;14.71;100.00;102149.66;5097175;27;45336;-78
2023/01/04 10:06:53;;;;;;;;;1.00;1.00;;;;;14.76;100.00;102150.06;5084483;28;45436;-79
2023/01/04 10:09:19;;;;;;;;;1.00;1.00;;;;;14.75;100.00;102137.44;5083741;27;45188;-80
2023/01/04 10:11:51;;;;;;;;;1.67;1.67;;;;;14.83;100.00;102149.53;5083671;27;45399;-79
2023/01/04 10:14:36;;;;;;;;;2.00;2.00;;;;;14.89;100.00;102148.97;5076893;27;45332;-78
2023/01/04 10:17:15;;;;;;;;;1.67;1.67;;;;;14.85;100.00;102150.25;5098198;27;45291;-80
2023/01/04 10:20:02;;;;;;;;;1.00;0.00;;;;;14.88;100.00;102148.09;5091741;27;46098;-81
2023/01/04 10:22:40;;;;;;;;;3.00;3.00;;;;;14.84;100.00;102140.28;5083316;28;45184;-79
2023/01/04 10:25:30;;;;;;;;;2.00;2.00;;;;;14.93;100.00;102144.91;5090226;27;45337;-79
2023/01/04 10:28:20;;;;;;;;;3.00;2.00;;;;;14.82;100.00;102145.06;5085972;27;45624;-78
2023/01/04 10:31:01;;;;;;;;;1.00;1.00;;;;;14.88;100.00;102141.75;5103793;27;46715;-80
2023/01/04 10:33:47;;;;;;;;;1.00;1.00;;;;;14.84;100.00;102130.22;5102836;27;45226;-77
2023/01/04 10:36:23;;;;;;;;;1.67;1.67;;;;;14.87;100.00;102134.56;5103754;27;45215;-79
2023/01/04 10:38:57;;;;;;;;;1.67;1.67;;;;;14.88;100.00;102128.94;5104287;27;45305;-78
2023/01/04 10:41:25;;;;;;;;;4.00;2.33;;;;;14.93;100.00;102134.84;5085029;27;47099;-80
2023/01/04 10:44:07;;;;;;;;;3.00;2.00;;;;;14.89;100.00;102133.41;5103792;27;45329;-80
2023/01/04 10:47:15;;;;;;;;;1.67;1.67;;;;;14.93;100.00;102131.25;5103918;27;45245;-79
2023/01/04 10:49:48;;;;;;;;;3.00;2.00;;;;;14.83;100.00;102138.59;5103164;27;45444;-78
2023/01/04 10:52:45;;;;;;;;;2.67;1.33;;;;;14.94;100.00;102130.22;5103348;27;46361;-77
2023/01/04 10:55:44;;;;;;;;;2.33;2.00;;;;;15.01;100.00;102123.19;5086944;27;45368;-79
2023/01/04 10:58:31;;;;;;;;;2.00;2.00;;;;;14.95;100.00;102126.50;5103337;27;45325;-79
2023/01/04 11:01:05;;;;;;;;;2.00;2.00;;;;;14.96;100.00;102122.75;5091065;27;45543;-78
2023/01/04 11:04:03;;;;;;;;;2.00;2.00;;;;;14.84;100.00;102121.16;5103565;27;45324;-78
2023/01/04 11:06:39;;;;;;;;;1.67;1.67;;;;;14.80;100.00;102124.19;5068823;27;45546;-80
2023/01/04 11:09:16;;;;;;;;;1.00;1.00;;;;;14.79;100.00;102114.25;5103626;27;45342;-78
2023/01/04 11:11:44;;;;;;;;;2.33;2.33;;;;;14.87;100.00;102112.66;5085078;27;45354;-80
2023/01/04 11:14:10;;;;;;;;;1.00;1.00;;;;;14.85;100.00;102111.94;5103739;27;46655;-79
2023/01/04 11:16:40;;;;;;;;;3.00;2.00;;;;;14.87;100.00;102112.66;5103640;27;45218;-79
2023/01/04 11:19:08;;;;;;;;;3.67;2.00;;;;;14.81;100.00;102105.91;5085089;27;45270;-80
2023/01/04 11:21:46;;;;;;;;;5.67;2.00;;;;;14.75;100.00;102115.53;5084844;27;45241;-81
2023/01/04 11:24:14;;;;;;;;;1.33;1.33;;;;;14.82;100.00;102110.38;5096717;27;46309;-80
2023/01/04 11:26:43;;;;;;;;;4.00;2.67;;;;;14.78;100.00;102104.31;5082633;27;45400;-78
2023/01/04 11:29:43;;;;;;;;;3.00;3.00;;;;;14.86;100.00;102108.19;5082810;28;45310;-78
2023/01/04 11:32:18;;;;;;;;;4.00;2.33;;;;;14.58;100.00;102097.09;5064937;28;45433;-80
2023/01/04 11:34:52;;;;;;;;;2.00;2.00;;;;;14.79;100.00;102083.28;5083162;28;45661;-79
2023/01/04 11:37:23;;;;;;;;;5.33;4.00;;;;;14.72;100.00;102088.47;5079897;27;45230;-79
2023/01/04 11:39:49;;;;;;;;;4.00;2.33;;;;;14.85;100.00;102084.56;5086236;27;45457;-80
2023/01/04 11:42:21;;;;;;;;;3.00;2.67;;;;;14.78;100.00;102087.00;5086102;27;45227;-79
2023/01/04 11:45:17;;;;;;;;;6.00;6.00;;;;;14.89;100.00;102094.25;5095488;27;45424;-78
2023/01/04 11:48:05;;;;;;;;;4.67;2.33;;;;;14.84;100.00;102074.63;5057267;28;45297;-79
2023/01/04 11:50:40;;;;;;;;;1.00;1.00;;;;;14.85;100.00;102069.00;5088035;27;45237;-79
2023/01/04 11:53:21;;;;;;;;;2.00;2.00;;;;;14.79;100.00;102084.16;5107350;27;45238;-80
2023/01/04 11:55:46;;;;;;;;;3.67;3.67;;;;;14.83;100.00;102071.03;5087179;27;45540;-79
2023/01/04 11:58:14;;;;;;;;;2.33;2.00;;;;;14.92;100.00;102074.78;5093535;27;45325;-79
2023/01/04 12:00:56;;;;;;;;;4.67;4.67;;;;;14.93;100.00;102071.91;5085510;28;45350;-81
2023/01/04 12:03:24;;;;;;;;;4.67;3.67;;;;;14.98;100.00;102068.72;5086288;27;45394;-81
2023/01/04 12:05:50;;;;;;;;;0.67;0.67;;;;;14.87;100.00;102083.44;5075549;27;46750;-78
2023/01/04 12:08:33;;;;;;;;;2.67;2.67;;;;;15.01;100.00;102066.56;5091064;27;45308;-80
2023/01/04 12:11:01;;;;;;;;;2.67;2.00;;;;;14.98;100.00;102068.72;5085586;27;45427;-79
2023/01/04 12:13:27;;;;;;;;;3.67;2.33;;;;;14.75;100.00;102065.44;5086131;27;45408;-80
2023/01/04 12:16:07;;;;;;;;;2.00;2.00;;;;;14.96;100.00;102078.97;5085804;28;45406;-81
2023/01/04 12:18:42;;;;;;;;;3.00;3.00;;;;;15.00;100.00;102069.44;5085511;28;44862;-81